createdAt,value
2022-08-14T00:00:08.867Z,825.0930
2022-08-14T00:00:19.932Z,828.6780
2022-08-14T00:00:31.200Z,829.1930
2022-08-14T00:00:44.320Z,830.2240
2022-08-14T00:00:55.397Z,832.8130
2022-08-14T00:01:11.410Z,836.4660
2022-08-14T00:01:23.906Z,821.5380
2022-08-14T00:01:35.617Z,826.1140
2022-08-14T00:01:54.541Z,825.0930
2022-08-14T00:02:03.914Z,825.0930
2022-08-14T00:02:14.992Z,830.2240
2022-08-14T00:02:27.290Z,829.1930
2022-08-14T00:02:39.021Z,825.0930
2022-08-14T00:02:50.200Z,836.9910
2022-08-14T00:03:01.278Z,835.4190
2022-08-14T00:03:12.350Z,846.0080
2022-08-14T00:03:29.572Z,846.0080
2022-08-14T00:03:41.393Z,829.1930
2022-08-14T00:03:53.418Z,841.2100
2022-08-14T00:04:32.051Z,837.5160
2022-08-14T00:04:32.075Z,838.0410
2022-08-14T00:04:42.208Z,820.5290
2022-08-14T00:04:56.694Z,813.0330
2022-08-14T00:05:07.947Z,819.0180
2022-08-14T00:05:19.062Z,830.7410
2022-08-14T00:05:30.144Z,825.0930
2022-08-14T00:05:42.039Z,835.4190
2022-08-14T00:05:59.962Z,833.8540
2022-08-14T00:06:25.276Z,826.1140
2022-08-14T00:06:29.480Z,818.0150
2022-08-14T00:06:40.532Z,820.0250
2022-08-14T00:06:53.144Z,828.1640
2022-08-14T00:07:04.319Z,828.6780
2022-08-14T00:07:17.826Z,828.1640
2022-08-14T00:07:28.893Z,835.4190
2022-08-14T00:07:41.815Z,839.0950
2022-08-14T00:07:53.414Z,831.2580
2022-08-14T00:08:14.404Z,833.8540
2022-08-14T00:08:42.012Z,820.0250
2022-08-14T00:08:45.001Z,830.2240
2022-08-14T00:08:59.351Z,816.5140
2022-08-14T00:09:10.684Z,813.0330
2022-08-14T00:09:21.757Z,825.0930
2022-08-14T00:09:33.386Z,826.6250
2022-08-14T00:09:55.521Z,819.5210
2022-08-14T00:10:50.331Z,808.6010
2022-08-14T00:10:51.141Z,801.3210
2022-08-14T00:10:52.868Z,809.0910
2022-08-14T00:10:58.179Z,800.3600
2022-08-14T00:11:10.360Z,805.6730
2022-08-14T00:11:23.372Z,809.0910
2022-08-14T00:11:34.453Z,816.5140
2022-08-14T00:11:47.205Z,816.0150
2022-08-14T00:11:58.287Z,824.0740
2022-08-14T00:12:23.940Z,824.5830
2022-08-14T00:12:33.670Z,814.0240
2022-08-14T00:12:43.846Z,809.5820
2022-08-14T00:12:59.747Z,801.3210
2022-08-14T00:13:16.561Z,800.8400
2022-08-14T00:13:27.637Z,811.5500
2022-08-14T00:13:42.428Z,801.3210
2022-08-14T00:13:53.507Z,808.6010
2022-08-14T00:14:04.534Z,811.5500
2022-08-14T00:14:17.323Z,825.6030
2022-08-14T00:14:28.756Z,816.0150
2022-08-14T00:14:39.826Z,826.1140
2022-08-14T00:14:55.170Z,818.5160
2022-08-14T00:15:06.447Z,825.0930
2022-08-14T00:15:17.656Z,821.5380
2022-08-14T00:15:29.751Z,840.6800
2022-08-14T00:15:48.203Z,820.0250
2022-08-14T00:15:59.505Z,820.0250
2022-08-14T00:16:10.566Z,822.0440
2022-08-14T00:16:40.833Z,810.5650
2022-08-14T00:16:44.884Z,801.8020
2022-08-14T00:16:56.306Z,812.5380
2022-08-14T00:17:07.369Z,817.5140
2022-08-14T00:17:18.439Z,817.5140
2022-08-14T00:17:38.021Z,817.0130
2022-08-14T00:17:53.270Z,809.5820
2022-08-14T00:18:05.051Z,811.0570
2022-08-14T00:18:30.776Z,805.6730
2022-08-14T00:19:06.894Z,797.4910
2022-08-14T00:19:18.310Z,810.0730
2022-08-14T00:19:19.555Z,793.6980
2022-08-14T00:19:25.933Z,795.5900
2022-08-14T00:19:38.510Z,795.5900
2022-08-14T00:19:52.448Z,797.9680
2022-08-14T00:20:04.277Z,804.2170
2022-08-14T00:20:16.007Z,802.7660
2022-08-14T00:20:41.225Z,797.9680
2022-08-14T00:20:49.985Z,790.8770
2022-08-14T00:21:02.691Z,800.8400
2022-08-14T00:21:14.235Z,807.1340
2022-08-14T00:21:28.253Z,808.1110
2022-08-14T00:21:42.083Z,805.6730
2022-08-14T00:21:53.186Z,809.0910
2022-08-14T00:22:04.345Z,812.0440
2022-08-14T00:22:44.548Z,816.0150
2022-08-14T00:22:57.101Z,805.6730
2022-08-14T00:22:57.691Z,800.3600
2022-08-14T00:23:12.134Z,794.6430
2022-08-14T00:23:24.523Z,793.2260
2022-08-14T00:23:35.588Z,798.9230
2022-08-14T00:23:53.911Z,802.7660
2022-08-14T00:24:03.642Z,797.0150
2022-08-14T00:24:14.690Z,803.2490
2022-08-14T00:24:31.642Z,799.8800
2022-08-14T00:24:42.899Z,802.2840
2022-08-14T00:24:54.530Z,797.9680
2022-08-14T00:25:05.595Z,804.7020
2022-08-14T00:25:16.929Z,814.5210
2022-08-14T00:25:41.781Z,815.0180
2022-08-14T00:25:54.028Z,805.1870
2022-08-14T00:26:06.813Z,800.3600
2022-08-14T00:26:21.627Z,786.2190
2022-08-14T00:26:34.054Z,789.9410
2022-08-14T00:26:45.274Z,804.2170
2022-08-14T00:26:56.520Z,807.6230
2022-08-14T00:27:07.590Z,811.0570
2022-08-14T00:27:19.173Z,814.5210
2022-08-14T00:27:31.016Z,817.0130
2022-08-14T00:27:49.152Z,804.2170
2022-08-14T00:28:04.940Z,797.0150
2022-08-14T00:28:17.872Z,802.2840
2022-08-14T00:28:32.773Z,804.2170
2022-08-14T00:28:46.736Z,799.4010
2022-08-14T00:28:57.812Z,798.4450
2022-08-14T00:29:08.883Z,801.8020
2022-08-14T00:29:19.975Z,812.0440
2022-08-14T00:29:33.132Z,817.0130
2022-08-14T00:29:48.023Z,807.1340
2022-08-14T00:30:00.316Z,808.1110
2022-08-14T00:30:14.314Z,813.5280
2022-08-14T00:30:28.348Z,806.6470
2022-08-14T00:30:42.861Z,810.5650
2022-08-14T00:30:54.468Z,800.3600
2022-08-14T00:31:07.786Z,804.2170
2022-08-14T00:31:19.363Z,807.1340
2022-08-14T00:31:35.358Z,814.5210
2022-08-14T00:31:47.406Z,807.1340
2022-08-14T00:32:05.975Z,794.6430
2022-08-14T00:32:52.194Z,784.8320
2022-08-14T00:32:53.478Z,794.1700
2022-08-14T00:32:56.658Z,782.5320
2022-08-14T00:33:16.238Z,791.3460
2022-08-14T00:33:52.084Z,777.9720
2022-08-14T00:33:52.402Z,773.9130
2022-08-14T00:33:58.982Z,773.0170
2022-08-14T00:34:35.542Z,764.1670
2022-08-14T00:34:36.436Z,773.4650
2022-08-14T00:34:50.269Z,761.1170
2022-08-14T00:35:02.201Z,769.0090
2022-08-14T00:35:13.285Z,773.4650
2022-08-14T00:36:33.959Z,782.9910
2022-08-14T00:36:35.716Z,777.0660
2022-08-14T00:36:35.797Z,760.2510
2022-08-14T00:36:36.110Z,764.6050
2022-08-14T00:36:36.153Z,766.8010
2022-08-14T00:36:50.522Z,757.2320
2022-08-14T00:37:01.970Z,771.6760
2022-08-14T00:37:13.674Z,769.4520
2022-08-14T00:37:25.179Z,782.9910
2022-08-14T00:37:36.252Z,782.9910
2022-08-14T00:37:47.319Z,789.9410
2022-08-14T00:37:58.391Z,793.6980
2022-08-14T00:38:10.098Z,789.4740
2022-08-14T00:38:21.181Z,795.1160
2022-08-14T00:38:35.315Z,791.3460
2022-08-14T00:38:46.335Z,803.2490
2022-08-14T00:38:57.407Z,796.5390
2022-08-14T00:39:09.260Z,800.8400
2022-08-14T00:39:20.994Z,801.8020
2022-08-14T00:39:32.158Z,812.0440
2022-08-14T00:39:43.436Z,809.0910
2022-08-14T00:39:55.091Z,813.0330
2022-08-14T00:40:27.499Z,805.6730
2022-08-14T00:40:33.355Z,799.4010
2022-08-14T00:40:40.069Z,791.8150
2022-08-14T00:40:57.047Z,790.4090
2022-08-14T00:41:11.018Z,789.0070
2022-08-14T00:41:22.341Z,789.4740
2022-08-14T00:41:34.514Z,801.8020
2022-08-14T00:41:45.717Z,804.2170
2022-08-14T00:41:56.772Z,806.1590
2022-08-14T00:42:21.259Z,808.1110
2022-08-14T00:42:52.715Z,800.8400
2022-08-14T00:42:54.971Z,792.2850
2022-08-14T00:42:59.295Z,784.8320
2022-08-14T00:43:10.364Z,788.0760
2022-08-14T00:43:21.463Z,796.0640
2022-08-14T00:43:35.166Z,795.5900
2022-08-14T00:43:47.905Z,796.5390
2022-08-14T00:43:58.978Z,803.7330
2022-08-14T00:44:10.034Z,810.0730
2022-08-14T00:44:26.724Z,810.5650
2022-08-14T00:44:38.078Z,797.9680
2022-08-14T00:44:53.875Z,788.0760
2022-08-14T00:45:06.605Z,795.1160
2022-08-14T00:45:18.373Z,805.1870
2022-08-14T00:45:31.860Z,797.0150
2022-08-14T00:45:42.928Z,802.7660
2022-08-14T00:45:59.918Z,791.8150
2022-08-14T00:46:32.341Z,798.9230
2022-08-14T00:46:32.492Z,790.8770
2022-08-14T00:46:45.442Z,782.0740
2022-08-14T00:46:58.785Z,792.7550
2022-08-14T00:47:11.009Z,790.4090
2022-08-14T00:47:22.730Z,796.5390
2022-08-14T00:47:42.977Z,798.4450
2022-08-14T00:47:51.650Z,787.1460
2022-08-14T00:48:02.709Z,792.7550
2022-08-14T00:48:13.777Z,802.7660
2022-08-14T00:48:34.687Z,795.1160
2022-08-14T00:48:49.102Z,787.1460
2022-08-14T00:49:00.322Z,783.4510
2022-08-14T00:49:14.654Z,791.8150
2022-08-14T00:49:25.924Z,791.3460
2022-08-14T00:49:43.391Z,791.3460
2022-08-14T00:49:54.833Z,792.2850
2022-08-14T00:50:05.905Z,795.5900
2022-08-14T00:50:18.166Z,799.4010
2022-08-14T00:50:29.453Z,795.1160
2022-08-14T00:50:40.650Z,798.4450
2022-08-14T00:50:52.017Z,806.6470
2022-08-14T00:51:03.073Z,811.5500
2022-08-14T00:51:14.196Z,804.7020
2022-08-14T00:51:34.746Z,807.1340
2022-08-14T00:51:42.807Z,802.2840
2022-08-14T00:51:53.881Z,800.3600
2022-08-14T00:52:04.934Z,807.1340
2022-08-14T00:52:18.601Z,804.2170
2022-08-14T00:52:29.874Z,809.0910
2022-08-14T00:52:41.062Z,806.1590
2022-08-14T00:52:52.151Z,812.5380
2022-08-14T00:53:03.267Z,817.5140
2022-08-14T00:53:14.717Z,816.0150
2022-08-14T00:53:25.802Z,817.5140
2022-08-14T00:53:36.888Z,820.0250
2022-08-14T00:53:49.609Z,821.0330
2022-08-14T00:54:00.689Z,819.0180
2022-08-14T00:54:21.833Z,819.5210
2022-08-14T00:54:28.857Z,817.5140
2022-08-14T00:54:39.963Z,817.5140
2022-08-14T00:54:51.658Z,813.0330
2022-08-14T00:55:08.632Z,809.5820
2022-08-14T00:55:25.600Z,804.2170
2022-08-14T00:55:38.906Z,806.1590
2022-08-14T00:55:50.208Z,801.8020
2022-08-14T00:56:01.305Z,806.1590
2022-08-14T00:56:18.311Z,808.6010
2022-08-14T00:56:31.364Z,811.0570
2022-08-14T00:56:43.124Z,801.8020
2022-08-14T00:56:54.906Z,808.6010
2022-08-14T00:57:06.901Z,814.5210
2022-08-14T00:57:19.406Z,811.0570
2022-08-14T00:57:31.590Z,811.0570
2022-08-14T00:57:43.992Z,809.0910
2022-08-14T00:57:56.588Z,809.5820
2022-08-14T00:58:08.430Z,816.0150
2022-08-14T00:58:19.479Z,820.5290
2022-08-14T00:58:36.456Z,810.0730
2022-08-14T00:58:53.420Z,796.5390
2022-08-14T00:59:04.475Z,801.8020
2022-08-14T00:59:16.174Z,804.2170
2022-08-14T00:59:27.418Z,809.0910
2022-08-14T00:59:39.544Z,815.0180
2022-08-14T00:59:51.403Z,814.0240
2022-08-14T01:00:03.259Z,813.5280
2022-08-14T01:00:34.393Z,819.5210
2022-08-14T01:00:43.032Z,813.0330
2022-08-14T01:00:57.462Z,797.4910
2022-08-14T01:01:05.264Z,798.4450
2022-08-14T01:01:18.357Z,792.7550
2022-08-14T01:01:30.120Z,798.9230
2022-08-14T01:01:41.568Z,802.2840
2022-08-14T01:01:52.834Z,815.0180
2022-08-14T01:02:05.609Z,814.0240
2022-08-14T01:02:20.333Z,808.1110
2022-08-14T01:02:32.400Z,810.0730
2022-08-14T01:02:43.722Z,813.0330
2022-08-14T01:02:55.185Z,809.0910
2022-08-14T01:03:09.907Z,807.1340
2022-08-14T01:03:21.109Z,808.1110
2022-08-14T01:03:32.831Z,817.0130
2022-08-14T01:03:44.679Z,817.5140
2022-08-14T01:03:56.506Z,816.5140
2022-08-14T01:04:08.063Z,819.0180
2022-08-14T01:04:51.770Z,809.0910
2022-08-14T01:04:53.397Z,802.7660
2022-08-14T01:04:58.972Z,791.8150
2022-08-14T01:05:10.147Z,798.4450
2022-08-14T01:05:21.220Z,803.7330
2022-08-14T01:05:41.721Z,817.5140
2022-08-14T01:05:51.819Z,796.5390
2022-08-14T01:06:07.361Z,803.2490
2022-08-14T01:06:18.791Z,799.8800
2022-08-14T01:06:30.049Z,802.2840
2022-08-14T01:06:41.813Z,807.6230
2022-08-14T01:06:55.338Z,811.0570
2022-08-14T01:07:07.541Z,811.0570
2022-08-14T01:07:20.086Z,810.0730
2022-08-14T01:07:38.618Z,806.1590
2022-08-14T01:07:54.161Z,808.6010
2022-08-14T01:08:05.052Z,794.6430
2022-08-14T01:08:57.907Z,781.1590
2022-08-14T01:08:57.928Z,788.0760
2022-08-14T01:08:59.529Z,782.9910
2022-08-14T01:09:11.013Z,777.0660
2022-08-14T01:09:22.124Z,789.4740
2022-08-14T01:09:33.189Z,799.8800
2022-08-14T01:09:44.340Z,804.2170
2022-08-14T01:09:55.922Z,805.1870
2022-08-14T01:10:07.765Z,808.1110
2022-08-14T01:10:18.845Z,806.1590
2022-08-14T01:10:37.529Z,806.1590
2022-08-14T01:10:46.845Z,794.1700
2022-08-14T01:10:58.638Z,798.4450
2022-08-14T01:11:09.893Z,800.8400
2022-08-14T01:11:21.670Z,804.2170
2022-08-14T01:11:36.290Z,813.0330
2022-08-14T01:12:02.956Z,802.2840
2022-08-14T01:12:04.699Z,801.8020
2022-08-14T01:12:26.939Z,803.7330
2022-08-14T01:12:33.206Z,789.4740
2022-08-14T01:12:50.174Z,794.1700
2022-08-14T01:13:02.923Z,785.2940
2022-08-14T01:13:14.476Z,791.8150
2022-08-14T01:13:25.562Z,795.1160
2022-08-14T01:13:43.414Z,798.4450
2022-08-14T01:13:56.127Z,800.3600
2022-08-14T01:14:25.670Z,797.0150
2022-08-14T01:14:28.671Z,789.0070
2022-08-14T01:14:40.831Z,785.2940
2022-08-14T01:14:52.045Z,795.1160
2022-08-14T01:15:03.114Z,796.5390
2022-08-14T01:15:14.876Z,801.3210
2022-08-14T01:15:31.521Z,804.2170
2022-08-14T01:15:58.397Z,793.2260
2022-08-14T01:16:02.659Z,785.2940
2022-08-14T01:16:15.028Z,785.2940
2022-08-14T01:16:28.044Z,789.4740
2022-08-14T01:16:41.953Z,788.0760
2022-08-14T01:16:58.960Z,787.1460
2022-08-14T01:17:11.265Z,780.7020
2022-08-14T01:17:23.002Z,788.5410
2022-08-14T01:17:34.073Z,800.3600
2022-08-14T01:17:45.914Z,797.4910
2022-08-14T01:18:02.096Z,789.9410
2022-08-14T01:18:13.170Z,802.2840
2022-08-14T01:18:24.217Z,799.4010
2022-08-14T01:18:38.191Z,799.4010
2022-08-14T01:18:53.375Z,805.1870
2022-08-14T01:19:06.224Z,793.6980
2022-08-14T01:19:19.726Z,790.8770
2022-08-14T01:19:31.284Z,797.0150
2022-08-14T01:19:46.706Z,801.3210
2022-08-14T01:19:59.126Z,800.3600
2022-08-14T01:20:10.224Z,807.1340
2022-08-14T01:20:29.867Z,795.5900
2022-08-14T01:20:41.409Z,793.6980
2022-08-14T01:20:52.471Z,793.6980
2022-08-14T01:21:03.539Z,804.7020
2022-08-14T01:21:15.279Z,800.8400
2022-08-14T01:21:26.717Z,812.0440
2022-08-14T01:21:47.110Z,802.7660
2022-08-14T01:21:56.503Z,795.5900
2022-08-14T01:22:07.615Z,809.5820
2022-08-14T01:22:26.948Z,797.9680
2022-08-14T01:22:42.981Z,795.5900
2022-08-14T01:22:54.389Z,796.0640
2022-08-14T01:23:05.471Z,802.2840
2022-08-14T01:23:18.814Z,803.2490
2022-08-14T01:23:46.565Z,799.4010
2022-08-14T01:23:47.261Z,797.0150
2022-08-14T01:23:58.270Z,796.5390
2022-08-14T01:24:09.932Z,809.0910
2022-08-14T01:24:28.833Z,799.4010
2022-08-14T01:24:39.270Z,799.4010
2022-08-14T01:24:51.741Z,797.4910
2022-08-14T01:25:02.792Z,805.1870
2022-08-14T01:25:14.285Z,811.0570
2022-08-14T01:25:25.341Z,812.0440
2022-08-14T01:25:36.581Z,806.6470
2022-08-14T01:25:51.013Z,812.5380
2022-08-14T01:26:02.925Z,816.0150
2022-08-14T01:26:23.536Z,798.4450
2022-08-14T01:26:38.925Z,798.4450
2022-08-14T01:26:50.813Z,791.8150
2022-08-14T01:27:02.194Z,794.1700
2022-08-14T01:27:13.305Z,810.5650
2022-08-14T01:27:24.693Z,810.5650
2022-08-14T01:27:53.971Z,814.0240
2022-08-14T01:27:56.859Z,800.8400
2022-08-14T01:28:11.274Z,797.0150
2022-08-14T01:28:46.730Z,791.8150
2022-08-14T01:28:54.399Z,781.1590
2022-08-14T01:28:59.751Z,782.5320
2022-08-14T01:29:16.058Z,783.4510
2022-08-14T01:29:58.698Z,783.4510
2022-08-14T01:30:00.984Z,772.1230
2022-08-14T01:30:04.166Z,770.7850
2022-08-14T01:30:16.920Z,773.9130
2022-08-14T01:30:37.919Z,772.5690
2022-08-14T01:30:49.841Z,770.3400
2022-08-14T01:31:01.758Z,777.0660
2022-08-14T01:31:14.275Z,784.3710
2022-08-14T01:31:25.714Z,780.7020
2022-08-14T01:31:42.670Z,781.6160
2022-08-14T01:31:53.738Z,789.0070
2022-08-14T01:32:04.819Z,785.2940
2022-08-14T01:32:22.994Z,785.2940
2022-08-14T01:32:35.341Z,784.8320
2022-08-14T01:32:51.213Z,782.0740
2022-08-14T01:33:02.638Z,777.9720
2022-08-14T01:33:13.715Z,784.8320
2022-08-14T01:33:24.771Z,794.6430
2022-08-14T01:34:00.166Z,799.4010
2022-08-14T01:35:16.084Z,780.7020
2022-08-14T01:35:17.423Z,763.2930
2022-08-14T01:35:17.789Z,776.1630
2022-08-14T01:35:18.855Z,774.3620
2022-08-14T01:35:20.411Z,770.7850
2022-08-14T01:36:02.934Z,758.0920
2022-08-14T01:36:04.533Z,755.9460
2022-08-14T01:36:05.223Z,755.9460
2022-08-14T01:36:21.223Z,755.5180
2022-08-14T01:36:29.774Z,749.1580
2022-08-14T01:36:46.753Z,747.8990
2022-08-14T01:36:57.815Z,760.2510
2022-08-14T01:37:08.905Z,762.8570
2022-08-14T01:37:22.058Z,771.6760
2022-08-14T01:37:33.155Z,768.1240
2022-08-14T01:37:54.494Z,773.0170
2022-08-14T01:38:05.915Z,759.8180
2022-08-14T01:38:17.010Z,763.2930
2022-08-14T01:38:28.071Z,781.1590
2022-08-14T01:38:39.174Z,778.4260
2022-08-14T01:38:56.134Z,769.0090
2022-08-14T01:39:12.493Z,773.0170
2022-08-14T01:39:24.201Z,775.7120
2022-08-14T01:39:35.345Z,771.6760
2022-08-14T01:39:49.035Z,776.1630
2022-08-14T01:40:05.930Z,770.7850
2022-08-14T01:40:25.754Z,761.9860
2022-08-14T01:40:41.974Z,760.6840
2022-08-14T01:40:53.229Z,765.0430
2022-08-14T01:41:05.449Z,766.8010
2022-08-14T01:41:23.023Z,761.1170
2022-08-14T01:41:39.368Z,756.8030
2022-08-14T01:41:51.127Z,766.8010
2022-08-14T01:42:02.240Z,769.0090
2022-08-14T01:42:31.347Z,777.0660
2022-08-14T01:42:32.200Z,768.5660
2022-08-14T01:42:47.503Z,761.9860
2022-08-14T01:42:58.660Z,765.9210
2022-08-14T01:43:09.736Z,771.6760
2022-08-14T01:43:26.530Z,782.0740
2022-08-14T01:43:38.217Z,768.1240
2022-08-14T01:43:56.595Z,775.7120
2022-08-14T01:44:06.763Z,771.2300
2022-08-14T01:44:33.186Z,761.1170
2022-08-14T01:44:41.273Z,768.1240
2022-08-14T01:44:54.380Z,764.6050
2022-08-14T01:45:06.299Z,771.6760
2022-08-14T01:45:25.183Z,770.3400
2022-08-14T01:45:40.226Z,764.6050
2022-08-14T01:45:57.629Z,766.3610
2022-08-14T01:46:08.279Z,761.5520
2022-08-14T01:46:26.162Z,758.5230
2022-08-14T01:46:43.136Z,751.6890
2022-08-14T01:47:00.950Z,754.6640
2022-08-14T01:47:11.773Z,751.2660
2022-08-14T01:47:23.331Z,757.6620
2022-08-14T01:47:37.237Z,763.7300
2022-08-14T01:47:48.638Z,768.5660
2022-08-14T01:48:03.307Z,768.1240
2022-08-14T01:48:14.878Z,766.3610
2022-08-14T01:48:25.926Z,774.8110
2022-08-14T01:48:38.361Z,774.3620
2022-08-14T01:48:49.439Z,777.5190
2022-08-14T01:49:00.677Z,777.9720
2022-08-14T01:49:11.731Z,787.6110
2022-08-14T01:49:24.436Z,783.4510
2022-08-14T01:49:58.967Z,775.2610
2022-08-14T01:49:59.756Z,775.2610
2022-08-14T01:50:14.355Z,763.7300
2022-08-14T01:50:26.672Z,772.5690
2022-08-14T01:50:37.745Z,774.3620
2022-08-14T01:50:48.813Z,780.7020
2022-08-14T01:51:00.413Z,781.6160
2022-08-14T01:51:19.541Z,787.6110
2022-08-14T01:51:29.562Z,776.6140
2022-08-14T01:51:41.037Z,780.2450
2022-08-14T01:51:52.130Z,782.9910
2022-08-14T01:52:08.928Z,784.8320
2022-08-14T01:52:33.674Z,777.0660
2022-08-14T01:52:58.510Z,763.7300
2022-08-14T01:52:58.743Z,769.8960
2022-08-14T01:53:11.718Z,761.9860
2022-08-14T01:53:22.796Z,774.3620
2022-08-14T01:53:35.762Z,775.7120
2022-08-14T01:53:47.151Z,783.4510
2022-08-14T01:54:04.119Z,768.1240
2022-08-14T01:54:15.284Z,778.8800
2022-08-14T01:54:37.779Z,774.3620
2022-08-14T01:54:46.350Z,775.2610
2022-08-14T01:55:03.320Z,765.0430
2022-08-14T01:55:18.034Z,762.8570
2022-08-14T01:55:29.108Z,772.5690
2022-08-14T01:55:40.665Z,783.9110
2022-08-14T01:55:51.959Z,781.6160
2022-08-14T01:56:03.019Z,788.0760
2022-08-14T01:56:18.247Z,786.6820
2022-08-14T01:56:30.479Z,782.0740
2022-08-14T01:56:46.998Z,772.1230
2022-08-14T01:56:58.060Z,779.3340
2022-08-14T01:57:10.333Z,781.6160
2022-08-14T01:57:21.568Z,786.2190
2022-08-14T01:57:34.082Z,789.4740
2022-08-14T01:58:00.610Z,789.4740
2022-08-14T01:58:19.815Z,774.3620
2022-08-14T01:58:28.735Z,777.0660
2022-08-14T01:58:57.281Z,764.6050
2022-08-14T01:58:58.392Z,764.6050
2022-08-14T01:59:09.613Z,766.8010
2022-08-14T01:59:21.154Z,770.7850
2022-08-14T01:59:37.535Z,783.9110
2022-08-14T01:59:49.198Z,778.8800
2022-08-14T02:00:00.848Z,775.2610
2022-08-14T02:00:14.611Z,775.7120
2022-08-14T02:00:29.072Z,777.5190
2022-08-14T02:00:42.165Z,776.1630
2022-08-14T02:00:53.414Z,785.2940
2022-08-14T02:01:05.501Z,782.5320
2022-08-14T02:01:20.099Z,780.7020
2022-08-14T02:01:37.233Z,775.7120
2022-08-14T02:01:57.973Z,779.7900
2022-08-14T02:02:05.350Z,777.5190
2022-08-14T02:02:22.255Z,770.7850
2022-08-14T02:02:36.768Z,775.2610
2022-08-14T02:02:48.845Z,779.7900
2022-08-14T02:03:06.193Z,778.8800
2022-08-14T02:03:18.077Z,772.5690
2022-08-14T02:03:30.021Z,780.7020
2022-08-14T02:03:41.723Z,779.7900
2022-08-14T02:03:58.692Z,776.1630
2022-08-14T02:04:20.555Z,781.6160
2022-08-14T02:04:55.799Z,774.3620
2022-08-14T02:04:55.901Z,775.2610
2022-08-14T02:05:00.782Z,766.3610
2022-08-14T02:05:11.844Z,778.8800
2022-08-14T02:05:22.904Z,785.7560
2022-08-14T02:05:35.838Z,782.5320
2022-08-14T02:05:49.782Z,783.9110
2022-08-14T02:06:04.034Z,785.2940
2022-08-14T02:06:32.625Z,777.5190
2022-08-14T02:06:34.869Z,768.1240
2022-08-14T02:06:47.485Z,780.2450
2022-08-14T02:07:05.627Z,769.0090
2022-08-14T02:07:16.708Z,776.1630
2022-08-14T02:07:53.332Z,775.2610
2022-08-14T02:07:55.848Z,763.2930
2022-08-14T02:08:09.117Z,760.2510
2022-08-14T02:08:22.274Z,762.8570
2022-08-14T02:08:38.249Z,760.2510
2022-08-14T02:08:55.511Z,761.1170
2022-08-14T02:09:19.089Z,763.2930
2022-08-14T02:09:24.617Z,757.6620
2022-08-14T02:09:35.855Z,769.4520
2022-08-14T02:09:55.656Z,769.0090
2022-08-14T02:10:06.502Z,762.8570
2022-08-14T02:10:17.983Z,769.8960
2022-08-14T02:10:29.141Z,779.7900
2022-08-14T02:10:46.122Z,782.5320
2022-08-14T02:10:57.180Z,777.9720
2022-08-14T02:11:08.257Z,772.5690
2022-08-14T02:11:20.368Z,775.2610
2022-08-14T02:11:31.436Z,781.6160
2022-08-14T02:11:42.577Z,783.9110
2022-08-14T02:11:54.638Z,791.8150
2022-08-14T02:12:05.973Z,788.0760
2022-08-14T02:12:29.106Z,785.2940
2022-08-14T02:12:37.344Z,784.3710
2022-08-14T02:12:49.037Z,787.1460
2022-08-14T02:13:05.420Z,776.1630
2022-08-14T02:13:18.853Z,778.4260
2022-08-14T02:13:31.131Z,777.5190
2022-08-14T02:13:46.697Z,775.7120
2022-08-14T02:14:07.497Z,773.0170
2022-08-14T02:14:31.232Z,778.4260
2022-08-14T02:14:35.479Z,765.0430
2022-08-14T02:14:50.847Z,774.8110
2022-08-14T02:15:04.773Z,767.2410
2022-08-14T02:15:16.300Z,769.8960
2022-08-14T02:15:27.370Z,777.0660
2022-08-14T02:15:38.578Z,781.6160
2022-08-14T02:15:52.497Z,781.6160
2022-08-14T02:16:21.834Z,789.9410
2022-08-14T02:16:22.100Z,777.9720
2022-08-14T02:16:34.145Z,775.2610
2022-08-14T02:16:45.221Z,782.0740
2022-08-14T02:16:57.193Z,789.4740
2022-08-14T02:17:08.262Z,790.8770
2022-08-14T02:17:19.602Z,791.8150
2022-08-14T02:17:33.884Z,791.3460
2022-08-14T02:17:44.957Z,791.8150
2022-08-14T02:18:00.230Z,788.5410
2022-08-14T02:18:11.819Z,790.8770
2022-08-14T02:18:26.275Z,789.9410
2022-08-14T02:18:43.273Z,787.6110
2022-08-14T02:18:56.327Z,781.6160
2022-08-14T02:19:09.468Z,785.2940
2022-08-14T02:19:20.520Z,789.9410
2022-08-14T02:19:34.083Z,793.2260
2022-08-14T02:19:45.146Z,798.4450
2022-08-14T02:19:58.536Z,796.0640
2022-08-14T02:20:09.878Z,796.0640
2022-08-14T02:20:23.839Z,800.3600
2022-08-14T02:20:35.950Z,792.7550
2022-08-14T02:20:47.669Z,798.4450
2022-08-14T02:20:59.478Z,797.0150
2022-08-14T02:21:10.671Z,801.3210
2022-08-14T02:21:23.437Z,804.7020
2022-08-14T02:21:43.263Z,803.2490
2022-08-14T02:21:51.961Z,793.2260
2022-08-14T02:22:03.501Z,799.4010
2022-08-14T02:22:14.785Z,798.4450
2022-08-14T02:22:33.070Z,793.2260
2022-08-14T02:22:48.079Z,790.8770
2022-08-14T02:22:59.777Z,789.0070
2022-08-14T02:23:11.861Z,791.8150
2022-08-14T02:23:23.916Z,798.4450
2022-08-14T02:23:39.883Z,793.6980
2022-08-14T02:23:53.657Z,796.0640
2022-08-14T02:24:05.113Z,794.1700
2022-08-14T02:24:40.195Z,792.7550
2022-08-14T02:24:45.017Z,777.9720
2022-08-14T02:24:56.028Z,775.2610
2022-08-14T02:25:07.116Z,787.1460
2022-08-14T02:25:18.318Z,787.1460
2022-08-14T02:25:30.999Z,791.8150
2022-08-14T02:25:42.370Z,794.1700
2022-08-14T02:25:54.608Z,801.3210
2022-08-14T02:26:24.732Z,790.4090
2022-08-14T02:26:24.732Z,797.4910
2022-08-14T02:26:58.465Z,777.5190
2022-08-14T02:28:18.342Z,783.4510
2022-08-14T02:28:22.183Z,765.4820
2022-08-14T02:28:22.296Z,773.0170
2022-08-14T02:28:24.384Z,768.5660
2022-08-14T02:28:25.045Z,768.1240
2022-08-14T02:28:57.355Z,755.0900
2022-08-14T02:28:57.892Z,760.2510
2022-08-14T02:28:58.241Z,755.5180
2022-08-14T02:29:10.930Z,756.8030
2022-08-14T02:29:22.010Z,765.9210
2022-08-14T02:29:56.403Z,769.8960
2022-08-14T02:30:00.034Z,765.9210
2022-08-14T02:30:08.797Z,758.0920
2022-08-14T02:30:19.857Z,765.9210
2022-08-14T02:30:31.501Z,773.0170
2022-08-14T02:30:42.747Z,777.9720
2022-08-14T02:30:53.824Z,781.6160
2022-08-14T02:31:05.541Z,782.5320
2022-08-14T02:31:20.074Z,781.1590
2022-08-14T02:31:43.402Z,777.0660
2022-08-14T02:31:54.002Z,767.2410
2022-08-14T02:32:05.539Z,775.7120
2022-08-14T02:32:19.884Z,779.7900
2022-08-14T02:32:36.728Z,776.6140
2022-08-14T02:32:49.001Z,769.8960
2022-08-14T02:33:00.238Z,775.7120
2022-08-14T02:33:12.745Z,779.7900
2022-08-14T02:33:25.210Z,791.8150
2022-08-14T02:33:40.571Z,778.8800
2022-08-14T02:33:51.727Z,782.9910
2022-08-14T02:34:02.839Z,788.0760
2022-08-14T02:34:21.763Z,781.6160
2022-08-14T02:34:36.780Z,779.7900
2022-08-14T02:34:47.839Z,781.6160
2022-08-14T02:34:58.914Z,785.2940
2022-08-14T02:35:11.656Z,786.6820
2022-08-14T02:35:22.735Z,790.8770
2022-08-14T02:35:40.739Z,793.6980
2022-08-14T02:35:53.584Z,790.4090
2022-08-14T02:37:02.417Z,774.8110
2022-08-14T02:37:03.741Z,765.4820
2022-08-14T02:37:04.591Z,771.2300
2022-08-14T02:37:05.268Z,783.4510
2022-08-14T02:37:17.027Z,764.1670
2022-08-14T02:37:45.685Z,779.3340
2022-08-14T02:37:46.452Z,772.5690
2022-08-14T02:37:59.569Z,765.9210
2022-08-14T02:38:30.413Z,765.9210
2022-08-14T02:38:30.444Z,771.2300
2022-08-14T02:38:45.998Z,762.8570
2022-08-14T02:38:57.058Z,768.5660
2022-08-14T02:39:08.158Z,775.7120
2022-08-14T02:39:19.275Z,782.9910
2022-08-14T02:39:31.510Z,783.4510
2022-08-14T02:39:42.621Z,784.3710
2022-08-14T02:39:53.765Z,795.5900
2022-08-14T02:40:05.433Z,797.4910
2022-08-14T02:40:16.868Z,796.5390